Time;durP1;ratioP1;P1;durP2;ratioP2;P2;SDS_P1;SDS_P2;PMS_P1;PMS_P2;Temp;Humidity;BMP_temperature;BMP_pressure;BME280_temperature;BME280_humidity;BME280_pressure;Samples;Min_cycle;Max_cycle;Signal;HPM_P1;HPM_P2
2023/03/21 00:00:32;;;;;;;0.80;0.80;;;;;;;10.19;100.00;100494.16;4909646;29;20500;-48
2023/03/21 00:02:59;;;;;;;0.60;0.60;;;;;;;10.13;100.00;100494.28;4913557;29;20457;-50
2023/03/21 00:05:25;;;;;;;0.67;0.40;;;;;;;10.12;100.00;100488.09;4898673;28;20490;-49
2023/03/21 00:07:52;;;;;;;1.13;0.60;;;;;;;10.15;100.00;100484.50;4903668;29;20453;-49
2023/03/21 00:10:18;;;;;;;1.83;0.97;;;;;;;10.14;100.00;100480.94;4913410;28;20826;-49
2023/03/21 00:13:04;;;;;;;4.80;1.27;;;;;;;10.03;100.00;100472.38;4908603;29;20460;-48
2023/03/21 00:15:31;;;;;;;0.73;0.60;;;;;;;10.10;100.00;100472.19;4913615;29;20496;-49
2023/03/21 00:18:14;;;;;;;2.83;0.83;;;;;;;10.14;100.00;100470.31;4906419;29;20465;-49
2023/03/21 00:20:46;;;;;;;0.93;0.77;;;;;;;10.17;100.00;100469.41;4913369;29;20477;-49
2023/03/21 00:23:12;;;;;;;0.60;0.53;;;;;;;10.22;100.00;100463.09;4913113;28;20460;-49
2023/03/21 00:25:38;;;;;;;0.90;0.73;;;;;;;10.24;100.00;100463.06;4913516;29;20462;-49
2023/03/21 00:28:05;;;;;;;0.70;0.70;;;;;;;10.27;98.98;100468.28;4913420;28;20453;-50
2023/03/21 00:30:34;;;;;;;1.00;1.00;;;;;;;10.12;100.00;100466.84;4913301;29;20473;-48
2023/03/21 00:33:00;;;;;;;0.90;0.77;;;;;;;10.17;100.00;100462.31;4900783;29;20469;-49
2023/03/21 00:35:46;;;;;;;1.40;0.67;;;;;;;10.23;100.00;100456.88;4913164;29;20453;-49
2023/03/21 00:38:32;;;;;;;1.07;0.63;;;;;;;10.22;100.00;100460.44;4913429;28;20485;-49
2023/03/21 00:41:01;;;;;;;0.97;0.73;;;;;;;10.30;100.00;100466.44;4913125;29;20473;-48
2023/03/21 00:43:42;;;;;;;0.60;0.53;;;;;;;10.14;100.00;100459.69;4913069;28;20546;-51
2023/03/21 00:46:09;;;;;;;10.50;0.60;;;;;;;10.02;100.00;100460.03;4910991;29;20463;-48
2023/03/21 00:48:36;;;;;;;0.63;0.63;;;;;;;10.05;100.00;100455.50;4908160;29;20457;-49
2023/03/21 00:51:12;;;;;;;3.20;0.77;;;;;;;10.07;100.00;100456.34;4916414;29;20912;-48
2023/03/21 00:53:38;;;;;;;0.60;0.53;;;;;;;10.10;100.00;100458.91;4916456;28;20872;-48
2023/03/21 00:56:05;;;;;;;0.60;0.57;;;;;;;10.15;100.00;100448.19;4916294;29;20453;-48
2023/03/21 00:58:31;;;;;;;0.80;0.60;;;;;;;10.10;100.00;100439.44;4916089;28;20946;-49
2023/03/21 01:00:58;;;;;;;0.60;0.60;;;;;;;10.10;100.00;100442.97;4903725;28;21017;-49
2023/03/21 01:03:25;;;;;;;2.40;0.60;;;;;;;10.00;100.00;100448.53;4916592;29;20461;-48
2023/03/21 01:06:03;;;;;;;1.17;0.57;;;;;;;10.05;100.00;100442.22;4910137;28;20832;-48
2023/03/21 01:08:35;;;;;;;0.90;0.90;;;;;;;10.02;100.00;100434.34;4911384;28;20452;-48
2023/03/21 01:11:19;;;;;;;0.80;0.80;;;;;;;10.08;100.00;100434.19;4913581;29;20891;-50
2023/03/21 01:13:46;;;;;;;0.80;0.60;;;;;;;10.06;100.00;100432.47;4911367;29;20548;-49
2023/03/21 01:16:33;;;;;;;8.57;2.60;;;;;;;10.18;100.00;100428.66;4910642;28;20499;-48
2023/03/21 01:19:00;;;;;;;0.67;0.67;;;;;;;10.17;100.00;100421.59;4915992;29;20518;-49
2023/03/21 01:21:31;;;;;;;1.67;1.57;;;;;;;10.02;100.00;100421.06;4916041;28;20455;-48
2023/03/21 01:23:57;;;;;;;0.77;0.77;;;;;;;10.04;100.00;100418.38;4915847;29;21028;-48
2023/03/21 01:26:24;;;;;;;4.00;1.80;;;;;;;10.05;100.00;100417.44;4914507;29;20457;-51
2023/03/21 01:28:51;;;;;;;1.00;0.47;;;;;;;10.04;100.00;100421.91;4904896;28;20468;-48
2023/03/21 01:31:17;;;;;;;0.60;0.50;;;;;;;9.94;100.00;100428.31;4915938;28;20835;-48
2023/03/21 01:33:44;;;;;;;0.60;0.50;;;;;;;10.06;100.00;100430.69;4910563;28;20524;-48
2023/03/21 01:36:15;;;;;;;3.53;1.40;;;;;;;10.00;100.00;100421.97;4911273;29;20461;-48
2023/03/21 01:38:42;;;;;;;0.70;0.70;;;;;;;9.97;100.00;100425.59;4916022;28;20460;-49
2023/03/21 01:41:30;;;;;;;0.70;0.70;;;;;;;9.92;100.00;100421.31;4915513;28;20481;-48
2023/03/21 01:44:17;;;;;;;1.30;1.17;;;;;;;10.00;100.00;100424.63;4915469;28;20604;-48
2023/03/21 01:46:52;;;;;;;3.03;0.77;;;;;;;10.07;100.00;100415.63;4915814;28;20560;-48
2023/03/21 01:49:44;;;;;;;0.67;0.67;;;;;;;9.98;100.00;100418.50;4907205;29;20512;-48
2023/03/21 01:52:15;;;;;;;5.20;1.43;;;;;;;9.93;100.00;100410.66;4915533;29;20938;-50
2023/03/21 01:54:56;;;;;;;0.47;0.47;;;;;;;9.94;100.00;100407.09;4906764;28;20465;-48
2023/03/21 01:57:38;;;;;;;0.50;0.43;;;;;;;9.80;100.00;100406.53;4911331;29;21648;-50
2023/03/21 02:00:15;;;;;;;0.70;0.70;;;;;;;9.67;100.00;100408.59;4915474;29;20554;-51
2023/03/21 02:02:50;;;;;;;0.60;0.60;;;;;;;9.78;100.00;100403.94;4915390;29;20489;-48
2023/03/21 02:05:28;;;;;;;1.47;0.77;;;;;;;9.80;100.00;100399.44;4903495;28;20507;-49
2023/03/21 02:07:55;;;;;;;1.80;1.10;;;;;;;9.82;100.00;100401.19;4906282;28;20453;-49
2023/03/21 02:10:22;;;;;;;2.07;0.73;;;;;;;9.86;100.00;100401.06;4904256;29;20477;-49
2023/03/21 02:12:49;;;;;;;0.70;0.50;;;;;;;9.88;100.00;100398.41;4910111;29;20551;-49
2023/03/21 02:15:15;;;;;;;1.27;0.50;;;;;;;9.71;100.00;100394.34;4908048;29;20457;-49
2023/03/21 02:18:08;;;;;;;3.53;0.97;;;;;;;9.80;100.00;100390.63;4905961;28;20461;-49
2023/03/21 02:20:57;;;;;;;1.40;0.73;;;;;;;9.80;100.00;100386.19;4891765;29;20469;-49
2023/03/21 02:23:54;;;;;;;5.47;1.17;;;;;;;9.68;100.00;100385.59;4914879;29;21001;-48
2023/03/21 02:26:42;;;;;;;0.87;0.87;;;;;;;9.72;100.00;100376.63;4915251;29;20461;-48
2023/03/21 02:29:22;;;;;;;1.93;0.60;;;;;;;9.52;100.00;100382.41;4899419;29;21038;-49
2023/03/21 02:32:12;;;;;;;0.43;0.33;;;;;;;9.52;100.00;100373.59;4914973;28;20954;-48
2023/03/21 02:35:20;;;;;;;0.87;0.73;;;;;;;9.45;100.00;100378.16;4914963;29;20457;-48
2023/03/21 02:38:17;;;;;;;0.70;0.70;;;;;;;9.31;100.00;100375.81;4914854;29;20460;-48
2023/03/21 02:41:01;;;;;;;0.50;0.40;;;;;;;9.05;100.00;100364.91;4914719;29;20483;-48
2023/03/21 02:43:47;;;;;;;0.60;0.47;;;;;;;9.24;100.00;100358.28;4904622;28;20461;-49
2023/03/21 02:46:35;;;;;;;4.33;0.73;;;;;;;9.27;100.00;100362.66;4914775;29;20456;-49
2023/03/21 02:49:29;;;;;;;1.13;1.13;;;;;;;9.13;100.00;100355.00;4914718;29;20853;-49
2023/03/21 02:51:58;;;;;;;1.73;1.63;;;;;;;9.11;100.00;100364.78;4915054;29;20449;-49
2023/03/21 02:54:42;;;;;;;0.83;0.83;;;;;;;9.49;100.00;100358.63;4892615;29;20461;-48
2023/03/21 02:57:18;;;;;;;2.20;0.80;;;;;;;9.69;100.00;100358.13;4914410;29;20539;-49
2023/03/21 02:59:47;;;;;;;1.27;1.27;;;;;;;9.71;100.00;100359.84;4914585;29;20485;-49
2023/03/21 03:02:27;;;;;;;0.90;0.90;;;;;;;9.71;100.00;100356.31;4914678;29;20457;-49
2023/03/21 03:04:54;;;;;;;4.83;1.07;;;;;;;9.64;100.00;100360.91;4914477;29;20501;-49
2023/03/21 03:07:40;;;;;;;2.30;0.80;;;;;;;9.64;100.00;100352.94;4901878;28;20495;-49
2023/03/21 03:10:22;;;;;;;0.60;0.50;;;;;;;9.64;99.77;100352.94;4900907;29;20478;-49
2023/03/21 03:13:06;;;;;;;1.33;1.10;;;;;;;9.80;99.29;100348.13;4908355;28;20487;-50
2023/03/21 03:15:51;;;;;;;0.93;0.70;;;;;;;9.92;99.57;100347.84;4914314;28;20511;-48
2023/03/21 03:18:36;;;;;;;0.80;0.77;;;;;;;9.92;100.00;100353.16;4907828;29;20454;-50
2023/03/21 03:21:30;;;;;;;9.20;1.27;;;;;;;9.96;100.00;100344.19;4914491;28;20472;-49
2023/03/21 03:24:02;;;;;;;0.97;0.90;;;;;;;9.97;100.00;100342.41;4909441;29;20970;-49
2023/03/21 03:27:00;;;;;;;3.23;0.90;;;;;;;9.97;100.00;100342.41;4910569;29;20457;-48
2023/03/21 03:29:30;;;;;;;3.03;1.50;;;;;;;9.95;100.00;100336.25;4914038;29;20475;-49
2023/03/21 03:32:24;;;;;;;1.00;0.93;;;;;;;9.85;100.00;100332.09;4910190;29;20465;-49
2023/03/21 03:34:55;;;;;;;2.10;1.33;;;;;;;9.62;99.98;100338.84;4918108;28;20462;-49
2023/03/21 03:37:30;;;;;;;0.60;0.60;;;;;;;9.74;100.00;100337.69;4915498;29;20453;-48
2023/03/21 03:40:07;;;;;;;1.43;0.70;;;;;;;9.86;100.00;100340.00;4914063;29;20468;-48
2023/03/21 03:42:39;;;;;;;0.70;0.70;;;;;;;9.83;100.00;100339.22;4913952;29;20452;-48
2023/03/21 03:45:08;;;;;;;1.93;0.60;;;;;;;9.88;100.00;100340.88;4913846;28;20493;-48
2023/03/21 03:47:41;;;;;;;2.67;0.93;;;;;;;9.88;100.00;100338.22;4906221;29;20915;-49
2023/03/21 03:50:47;;;;;;;0.73;0.40;;;;;;;9.96;100.00;100345.97;4913922;29;20489;-48
2023/03/21 03:53:22;;;;;;;4.63;1.20;;;;;;;9.87;100.00;100343.53;4894819;29;20463;-48
2023/03/21 03:55:52;;;;;;;1.10;1.03;;;;;;;9.97;100.00;100347.72;4909203;28;20456;-49
2023/03/21 03:58:20;;;;;;;2.20;0.83;;;;;;;9.95;100.00;100347.75;4913908;29;20457;-48
2023/03/21 04:00:55;;;;;;;0.70;0.70;;;;;;;9.92;100.00;100358.47;4913479;29;20538;-49
2023/03/21 04:03:22;;;;;;;0.60;0.60;;;;;;;9.94;100.00;100355.75;4913629;29;20461;-48
2023/03/21 04:05:49;;;;;;;0.60;0.50;;;;;;;9.87;100.00;100356.81;4913437;28;20866;-49
2023/03/21 04:08:16;;;;;;;25.83;2.80;;;;;;;9.88;100.00;100354.16;4906008;28;20462;-48
2023/03/21 04:10:43;;;;;;;0.70;0.70;;;;;;;9.77;100.00;100350.88;4901021;29;20481;-49
2023/03/21 04:13:10;;;;;;;0.40;0.33;;;;;;;9.84;100.00;100347.16;4908788;28;20470;-49
2023/03/21 04:15:36;;;;;;;1.10;1.00;;;;;;;9.90;100.00;100357.63;4913607;29;20468;-49
2023/03/21 04:18:03;;;;;;;2.63;0.70;;;;;;;10.02;100.00;100353.81;4913385;29;20461;-49
2023/03/21 04:20:29;;;;;;;0.60;0.60;;;;;;;9.94;100.00;100351.31;4888656;29;20477;-49
2023/03/21 04:23:08;;;;;;;1.20;0.60;;;;;;;9.92;100.00;100352.28;4906894;28;20481;-49
2023/03/21 04:25:36;;;;;;;4.60;0.67;;;;;;;9.95;99.51;100352.19;4913463;29;20493;-49
2023/03/21 04:28:13;;;;;;;8.30;1.37;;;;;;;9.90;100.00;100351.44;4913349;29;20546;-49
2023/03/21 04:30:40;;;;;;;0.70;0.60;;;;;;;9.77;100.00;100349.09;4913168;29;20481;-48
2023/03/21 04:33:14;;;;;;;0.93;0.50;;;;;;;9.77;100.00;100349.09;4902275;28;20488;-48
2023/03/21 04:35:41;;;;;;;1.13;1.03;;;;;;;9.87;100.00;100357.72;4905787;29;20449;-49
2023/03/21 04:38:07;;;;;;;2.43;1.30;;;;;;;9.95;100.00;100353.06;4913250;28;20461;-50
2023/03/21 04:40:34;;;;;;;0.50;0.40;;;;;;;9.89;100.00;100344.41;4913095;29;20477;-49
2023/03/21 04:43:01;;;;;;;2.17;1.83;;;;;;;9.83;100.00;100333.91;4913050;28;20938;-49
2023/03/21 04:45:27;;;;;;;1.20;1.10;;;;;;;9.71;100.00;100340.38;4913030;29;20497;-49
2023/03/21 04:47:55;;;;;;;3.40;0.93;;;;;;;9.84;100.00;100343.63;4913126;28;20461;-49
2023/03/21 04:50:22;;;;;;;2.00;1.90;;;;;;;9.89;100.00;100342.63;4899371;28;20556;-49
2023/03/21 04:52:48;;;;;;;0.90;0.70;;;;;;;9.93;100.00;100338.97;4911853;29;20457;-49
2023/03/21 04:55:15;;;;;;;0.60;0.60;;;;;;;9.92;100.00;100339.00;4899118;29;20451;-50
2023/03/21 04:57:41;;;;;;;1.57;1.47;;;;;;;9.92;100.00;100331.91;4907065;29;20465;-49
2023/03/21 05:00:09;;;;;;;0.87;0.63;;;;;;;9.92;100.00;100339.00;4913132;28;20492;-49
2023/03/21 05:02:37;;;;;;;0.80;0.80;;;;;;;9.88;100.00;100334.69;4904537;29;20547;-50
2023/03/21 05:05:04;;;;;;;12.23;2.80;;;;;;;9.93;100.00;100336.31;4912899;29;20497;-49
2023/03/21 05:07:31;;;;;;;0.83;0.80;;;;;;;9.81;100.00;100336.59;4887911;29;20835;-50
2023/03/21 05:09:58;;;;;;;6.80;0.90;;;;;;;9.77;100.00;100327.84;4912542;29;20472;-49
2023/03/21 05:12:27;;;;;;;2.47;1.23;;;;;;;9.75;100.00;100327.03;4907215;29;20556;-49
2023/03/21 05:14:54;;;;;;;3.23;1.40;;;;;;;9.77;100.00;100334.94;4910936;28;20457;-50
2023/03/21 05:17:23;;;;;;;1.33;0.70;;;;;;;9.81;100.00;100326.00;4901245;29;20958;-49
2023/03/21 05:19:51;;;;;;;4.60;2.73;;;;;;;9.89;100.00;100325.81;4912684;29;20477;-49
2023/03/21 05:22:19;;;;;;;3.53;1.37;;;;;;;9.94;100.00;100334.53;4912617;29;20834;-58
2023/03/21 05:24:49;;;;;;;2.27;1.03;;;;;;;9.94;100.00;100327.44;4898739;29;20461;-49
2023/03/21 05:27:33;;;;;;;1.83;0.70;;;;;;;9.94;100.00;100319.47;4903635;28;20457;-50
2023/03/21 05:30:06;;;;;;;1.63;1.53;;;;;;;10.03;100.00;100326.34;4903806;29;20595;-49
2023/03/21 05:32:33;;;;;;;0.93;0.70;;;;;;;10.21;100.00;100324.97;4904539;29;20778;-49
2023/03/21 05:35:00;;;;;;;1.27;1.00;;;;;;;10.21;100.00;100325.88;4913941;29;20900;-50
2023/03/21 05:37:27;;;;;;;1.73;1.33;;;;;;;10.18;100.00;100317.09;4915665;29;20479;-49
2023/03/21 05:39:54;;;;;;;1.07;0.93;;;;;;;10.21;100.00;100320.56;4915426;28;20473;-49
2023/03/21 05:42:21;;;;;;;1.50;1.40;;;;;;;10.30;100.00;100327.44;4915427;29;20453;-49
2023/03/21 05:44:47;;;;;;;1.50;1.40;;;;;;;10.20;100.00;100326.75;4915655;29;20459;-49
2023/03/21 05:47:16;;;;;;;0.60;0.50;;;;;;;10.18;100.00;100331.25;4915458;28;20962;-50
2023/03/21 05:49:43;;;;;;;3.50;2.30;;;;;;;10.15;100.00;100333.97;4915524;29;20473;-50
2023/03/21 05:52:10;;;;;;;2.50;1.70;;;;;;;10.17;100.00;100324.19;4915305;28;20463;-49
2023/03/21 05:54:36;;;;;;;2.37;2.13;;;;;;;10.21;100.00;100327.63;4915429;29;20464;-49
2023/03/21 05:57:04;;;;;;;2.23;2.13;;;;;;;10.20;100.00;100326.75;4915699;29;20486;-50
2023/03/21 05:59:30;;;;;;;2.93;1.60;;;;;;;10.19;100.00;100332.97;4915273;28;20539;-51
2023/03/21 06:01:56;;;;;;;0.83;0.83;;;;;;;10.19;100.00;100330.31;4915387;29;20457;-50
2023/03/21 06:04:23;;;;;;;0.80;0.80;;;;;;;10.26;100.00;100339.91;4915465;28;20461;-49
2023/03/21 06:06:51;;;;;;;6.53;2.00;;;;;;;10.23;100.00;100334.66;4902295;28;20494;-49
2023/03/21 06:09:17;;;;;;;2.40;2.30;;;;;;;10.19;100.00;100322.34;4915393;29;20477;-51
2023/03/21 06:11:47;;;;;;;12.50;2.80;;;;;;;10.25;100.00;100330.19;4910036;28;20481;-49
2023/03/21 06:14:14;;;;;;;4.10;2.70;;;;;;;10.32;100.00;100338.88;4915560;29;20453;-49
2023/03/21 06:16:41;;;;;;;2.23;1.30;;;;;;;10.46;100.00;100338.50;4915258;28;20456;-50
2023/03/21 06:19:07;;;;;;;5.83;3.07;;;;;;;10.28;100.00;100337.19;4915071;28;20481;-49
2023/03/21 06:21:34;;;;;;;2.97;1.07;;;;;;;10.36;99.65;100330.78;4915051;29;20915;-49
2023/03/21 06:24:00;;;;;;;2.87;2.20;;;;;;;10.39;100.00;100338.66;4915254;29;20460;-49
2023/03/21 06:26:27;;;;;;;4.03;2.30;;;;;;;10.39;100.00;100333.34;4915062;29;20563;-49
2023/03/21 06:28:53;;;;;;;1.13;1.03;;;;;;;10.73;99.18;100342.19;4914963;28;20461;-51
2023/03/21 06:31:21;;;;;;;1.23;1.13;;;;;;;10.63;98.92;100338.91;4914851;29;20460;-49
2023/03/21 06:33:48;;;;;;;2.80;1.50;;;;;;;10.68;98.48;100344.94;4915371;28;20764;-48
2023/03/21 06:36:14;;;;;;;1.80;1.63;;;;;;;10.72;98.86;100343.09;4914878;29;20460;-49
2023/03/21 06:38:41;;;;;;;2.93;1.77;;;;;;;10.57;98.60;100347.94;4914936;29;21134;-49
2023/03/21 06:41:10;;;;;;;4.33;1.53;;;;;;;10.52;98.53;100349.81;4914872;28;20484;-48
2023/03/21 06:43:37;;;;;;;6.73;2.10;;;;;;;10.52;99.41;100357.81;4914898;28;20544;-48
2023/03/21 06:46:04;;;;;;;2.00;1.63;;;;;;;10.62;99.44;100353.09;4914707;29;20493;-49
2023/03/21 06:48:31;;;;;;;3.57;1.57;;;;;;;10.56;99.12;100345.31;4914741;29;20461;-50
2023/03/21 06:50:57;;;;;;;1.27;1.17;;;;;;;10.63;99.26;100352.19;4914637;29;20674;-48
2023/03/21 06:53:28;;;;;;;1.43;1.33;;;;;;;10.66;98.88;100339.69;4914800;28;20453;-48
2023/03/21 06:55:55;;;;;;;1.67;1.60;;;;;;;10.63;99.29;100347.75;4914530;29;20902;-48
2023/03/21 06:58:22;;;;;;;4.00;1.53;;;;;;;10.72;98.43;100345.75;4914679;29;20477;-49
2023/03/21 07:00:49;;;;;;;1.60;1.50;;;;;;;10.91;97.52;100345.19;4914308;28;20491;-49
2023/03/21 07:03:15;;;;;;;2.63;2.47;;;;;;;10.89;97.32;100343.47;4914419;28;20457;-49
2023/03/21 07:05:42;;;;;;;13.30;1.40;;;;;;;11.15;96.79;100345.38;4909781;28;20498;-49
2023/03/21 07:08:12;;;;;;;0.83;0.80;;;;;;;11.39;96.03;100349.97;4906673;29;20461;-48
2023/03/21 07:10:41;;;;;;;17.63;2.73;;;;;;;11.53;94.47;100345.06;4914341;29;20496;-48
2023/03/21 07:13:11;;;;;;;1.10;1.00;;;;;;;11.36;93.00;100351.81;4908167;29;20971;-48
2023/03/21 07:15:37;;;;;;;0.50;0.50;;;;;;;11.58;91.98;100351.09;4914069;28;20507;-48
2023/03/21 07:18:05;;;;;;;2.13;2.03;;;;;;;11.70;90.25;100349.84;4914373;29;20929;-49
2023/03/21 07:20:32;;;;;;;8.30;2.13;;;;;;;11.70;88.66;100348.97;4913995;29;20484;-49
2023/03/21 07:22:59;;;;;;;1.33;1.23;;;;;;;12.01;87.31;100352.41;4914306;29;20508;-50
2023/03/21 07:25:26;;;;;;;1.40;1.30;;;;;;;11.67;88.08;100354.41;4914258;29;20503;-49
2023/03/21 07:27:54;;;;;;;2.60;1.20;;;;;;;11.70;87.78;100348.97;4914092;28;20449;-50
2023/03/21 07:30:21;;;;;;;2.83;1.17;;;;;;;11.67;88.47;100341.09;4913981;29;20480;-50
2023/03/21 07:32:47;;;;;;;3.50;2.33;;;;;;;11.71;90.30;100354.25;4913906;28;20488;-49
2023/03/21 07:35:16;;;;;;;1.33;1.23;;;;;;;11.63;90.43;100345.63;4914160;29;20453;-51
2023/03/21 07:37:42;;;;;;;2.30;1.80;;;;;;;11.55;90.16;100343.22;4914028;29;20463;-49
2023/03/21 07:40:12;;;;;;;2.23;1.70;;;;;;;11.78;89.44;100347.78;4913806;29;20986;-49
2023/03/21 07:42:39;;;;;;;2.40;1.60;;;;;;;11.61;88.81;100342.16;4913649;29;20997;-49
2023/03/21 07:45:07;;;;;;;3.13;1.90;;;;;;;11.43;88.37;100346.28;4914141;29;20460;-49
2023/03/21 07:47:35;;;;;;;1.40;1.30;;;;;;;11.49;88.82;100346.06;4913639;29;20458;-49
2023/03/21 07:50:03;;;;;;;7.10;1.77;;;;;;;11.69;89.32;100342.78;4913949;29;20599;-49
2023/03/21 07:52:31;;;;;;;3.10;1.57;;;;;;;11.82;88.01;100346.81;4913910;28;20552;-49
2023/03/21 07:54:57;;;;;;;10.00;2.23;;;;;;;11.87;87.64;100341.34;4913256;29;20463;-50
2023/03/21 07:57:24;;;;;;;1.23;1.00;;;;;;;11.68;88.79;100350.81;4913624;29;20453;-50
2023/03/21 07:59:50;;;;;;;1.10;1.00;;;;;;;12.22;87.58;100344.63;4913524;29;20492;-49
2023/03/21 08:02:17;;;;;;;1.40;1.30;;;;;;;11.69;88.12;100348.13;4913861;29;20453;-50
2023/03/21 08:04:44;;;;;;;2.33;2.23;;;;;;;11.80;88.49;100339.81;4913668;29;20959;-49
2023/03/21 08:07:11;;;;;;;4.40;1.30;;;;;;;11.95;87.65;100343.75;4900964;28;20582;-49
2023/03/21 08:09:37;;;;;;;2.03;1.93;;;;;;;11.88;87.72;100344.88;4913317;28;20867;-49
2023/03/21 08:12:07;;;;;;;4.70;2.40;;;;;;;11.83;87.56;100345.03;4908727;29;20468;-50
2023/03/21 08:14:35;;;;;;;3.87;2.73;;;;;;;12.02;87.81;100348.81;4913753;29;20453;-49
2023/03/21 08:17:07;;;;;;;3.40;1.10;;;;;;;12.03;85.84;100352.34;4913637;28;20452;-50
2023/03/21 08:19:34;;;;;;;8.80;1.10;;;;;;;12.06;87.25;100346.91;4913526;29;20509;-50
2023/03/21 08:22:01;;;;;;;1.97;1.77;;;;;;;12.19;87.04;100345.56;4913394;29;20491;-49
2023/03/21 08:24:28;;;;;;;6.43;2.80;;;;;;;12.31;85.79;100341.63;4913456;29;20552;-49
2023/03/21 08:26:54;;;;;;;7.10;2.13;;;;;;;12.03;86.87;100355.00;4913576;29;20524;-49
2023/03/21 08:29:21;;;;;;;2.00;1.90;;;;;;;12.31;85.88;100353.16;4913485;29;20477;-51
2023/03/21 08:31:48;;;;;;;3.37;1.47;;;;;;;12.14;85.08;100345.75;4888467;29;20453;-49
2023/03/21 08:34:16;;;;;;;5.17;1.83;;;;;;;12.14;86.67;100348.41;4913360;29;20457;-50
2023/03/21 08:36:43;;;;;;;2.00;1.90;;;;;;;12.34;86.68;100341.53;4913194;29;20845;-50
2023/03/21 08:39:09;;;;;;;2.47;2.37;;;;;;;11.99;87.69;100351.59;4913047;28;20479;-50
2023/03/21 08:41:36;;;;;;;4.23;3.60;;;;;;;12.16;86.64;100346.56;4913317;29;20484;-51
2023/03/21 08:44:05;;;;;;;3.30;1.70;;;;;;;12.38;87.02;100359.16;4913092;29;20464;-50
2023/03/21 08:46:32;;;;;;;5.83;1.77;;;;;;;12.13;87.80;100354.66;4913167;28;20520;-51
2023/03/21 08:48:59;;;;;;;9.63;3.07;;;;;;;12.16;88.76;100348.34;4913006;29;20457;-50
2023/03/21 08:51:25;;;;;;;16.23;2.37;;;;;;;12.02;90.37;100354.16;4912994;29;20875;-51
2023/03/21 08:53:52;;;;;;;2.40;2.23;;;;;;;12.40;89.39;100354.63;4912873;29;20465;-50
2023/03/21 08:56:18;;;;;;;2.43;2.27;;;;;;;12.22;88.39;100358.81;4913338;29;20450;-50
2023/03/21 08:58:46;;;;;;;5.80;3.00;;;;;;;12.24;89.85;100359.63;4912973;28;20901;-50
2023/03/21 09:01:14;;;;;;;5.93;1.73;;;;;;;12.20;89.47;100354.44;4912926;29;20461;-51
2023/03/21 09:03:42;;;;;;;1.40;1.30;;;;;;;12.38;89.35;100359.16;4912834;29;20515;-51
2023/03/21 09:06:09;;;;;;;10.17;1.93;;;;;;;12.58;86.34;100367.31;4904528;28;20551;-50
2023/03/21 09:08:37;;;;;;;2.20;2.10;;;;;;;12.59;85.43;100369.03;4911531;28;20459;-50
2023/03/21 09:11:04;;;;;;;2.10;1.90;;;;;;;12.51;86.61;100360.47;4915164;29;20523;-50
2023/03/21 09:13:30;;;;;;;5.83;1.73;;;;;;;12.70;85.22;100356.19;4912810;28;20453;-50
2023/03/21 09:16:00;;;;;;;10.30;1.57;;;;;;;12.41;86.91;100353.72;4916152;28;20950;-49
2023/03/21 09:18:37;;;;;;;7.43;2.60;;;;;;;12.31;87.48;100346.94;4915926;29;20475;-49
2023/03/21 09:21:11;;;;;;;1.40;1.23;;;;;;;12.69;85.70;100354.47;4916272;29;20501;-50
2023/03/21 09:23:38;;;;;;;1.87;1.77;;;;;;;12.46;87.31;100349.06;4916084;29;20484;-50
2023/03/21 09:26:06;;;;;;;6.13;2.20;;;;;;;12.41;85.91;100354.56;4915924;28;20493;-51
2023/03/21 09:28:33;;;;;;;8.60;2.20;;;;;;;12.13;86.97;100348.47;4915801;29;20457;-50
2023/03/21 09:31:01;;;;;;;8.50;1.30;;;;;;;12.45;88.45;100356.19;4915609;29;20473;-52
2023/03/21 09:33:28;;;;;;;3.23;2.13;;;;;;;12.38;88.30;100348.50;4915864;29;20464;-50
2023/03/21 09:35:55;;;;;;;3.03;1.90;;;;;;;12.27;89.12;100348.84;4915893;29;20449;-51
2023/03/21 09:38:29;;;;;;;6.17;2.03;;;;;;;12.31;89.33;100347.81;4915955;29;20456;-50
2023/03/21 09:41:38;;;;;;;6.30;2.07;;;;;;;12.09;89.92;100345.03;4916030;28;20496;-50
2023/03/21 09:44:31;;;;;;;2.17;1.97;;;;;;;12.29;91.52;100347.00;4921733;28;20512;-51
2023/03/21 09:47:28;;;;;;;0.90;0.90;;;;;;;12.83;88.15;100355.75;4915776;29;20907;-50
2023/03/21 09:49:59;;;;;;;3.80;3.50;;;;;;;12.46;89.93;100357.06;4894824;28;20556;-50
2023/03/21 09:53:25;;;;;;;3.93;1.73;;;;;;;12.55;89.58;100350.56;4915550;28;20453;-52
2023/03/21 09:55:53;;;;;;;3.47;2.00;;;;;;;12.97;88.84;100353.44;4881867;28;20496;-52
2023/03/21 09:58:28;;;;;;;2.20;1.23;;;;;;;13.03;89.19;100362.13;4915746;29;20954;-50
2023/03/21 10:01:06;;;;;;;2.03;1.93;;;;;;;12.65;91.34;100347.50;4915311;28;20485;-51
2023/03/21 10:03:34;;;;;;;11.73;2.60;;;;;;;12.55;90.02;100356.75;4915348;28;20828;-51
2023/03/21 10:06:04;;;;;;;12.17;2.40;;;;;;;12.31;90.71;100355.81;4908327;28;20449;-51
2023/03/21 10:08:35;;;;;;;4.80;1.83;;;;;;;12.15;91.15;100358.13;4910853;29;20457;-52
2023/03/21 10:11:24;;;;;;;4.77;1.60;;;;;;;12.12;91.53;100349.38;4914968;29;20473;-50
2023/03/21 10:13:56;;;;;;;2.23;2.13;;;;;;;11.94;93.78;100353.56;4914186;29;20458;-50
2023/03/21 10:16:29;;;;;;;1.23;1.13;;;;;;;12.02;96.04;100347.94;4914278;29;20958;-51
2023/03/21 10:18:57;;;;;;;1.13;1.10;;;;;;;12.11;94.39;100344.97;4914923;28;20835;-51
2023/03/21 10:21:26;;;;;;;1.70;1.60;;;;;;;12.05;94.40;100356.69;4915168;29;20874;-50
2023/03/21 10:24:26;;;;;;;14.53;2.53;;;;;;;12.16;93.37;100348.34;4915296;29;20464;-51
2023/03/21 10:26:53;;;;;;;2.00;1.90;;;;;;;12.27;95.41;100356.84;4915080;28;20503;-51
2023/03/21 10:29:24;;;;;;;8.80;2.00;;;;;;;12.24;95.70;100346.31;4915197;28;20477;-51
2023/03/21 10:31:52;;;;;;;2.00;1.47;;;;;;;12.31;95.05;100342.50;4890580;29;20453;-51
2023/03/21 10:34:42;;;;;;;8.73;1.30;;;;;;;12.20;95.43;100335.78;4915026;29;20544;-51
2023/03/21 10:37:10;;;;;;;1.43;0.80;;;;;;;12.20;96.76;100335.78;4922017;28;20457;-50
2023/03/21 10:39:40;;;;;;;2.00;1.90;;;;;;;12.07;94.95;100330.91;4915011;29;20477;-51
2023/03/21 10:42:17;;;;;;;1.50;1.40;;;;;;;11.91;94.93;100334.97;4915265;29;20457;-51
2023/03/21 10:44:48;;;;;;;2.80;1.53;;;;;;;11.85;96.28;100329.88;4915113;29;20453;-51
2023/03/21 10:47:20;;;;;;;15.70;1.97;;;;;;;11.85;96.46;100330.75;4915089;29;20497;-50
2023/03/21 10:49:47;;;;;;;4.70;2.03;;;;;;;11.82;95.93;100327.31;4891177;29;20477;-50
2023/03/21 10:52:36;;;;;;;1.77;1.67;;;;;;;12.03;95.83;100323.03;4913986;29;20494;-50
2023/03/21 10:55:39;;;;;;;2.90;1.97;;;;;;;12.03;97.40;100326.56;4915061;29;20457;-50
2023/03/21 10:58:09;;;;;;;13.43;1.37;;;;;;;11.93;97.59;100317.19;4889285;29;20456;-51
2023/03/21 11:00:40;;;;;;;1.27;1.17;;;;;;;11.94;98.03;100316.25;4914696;29;20489;-51
2023/03/21 11:03:20;;;;;;;1.40;1.30;;;;;;;12.13;97.46;100319.16;4914902;29;20453;-51
2023/03/21 11:05:47;;;;;;;5.80;1.37;;;;;;;12.39;96.03;100318.25;4909457;28;20446;-51
2023/03/21 11:08:17;;;;;;;9.23;2.03;;;;;;;12.55;95.51;100314.09;4907999;29;20492;-52
2023/03/21 11:11:05;;;;;;;1.90;1.80;;;;;;;12.51;94.75;100314.28;4914462;29;20473;-51
2023/03/21 11:13:42;;;;;;;4.93;1.80;;;;;;;12.69;95.68;100317.13;4908301;29;20449;-51
2023/03/21 11:16:10;;;;;;;1.07;0.97;;;;;;;12.80;93.23;100311.41;4914686;29;20453;-51
2023/03/21 11:18:42;;;;;;;2.07;1.87;;;;;;;12.84;94.96;100314.81;4914414;28;20892;-51
2023/03/21 11:21:12;;;;;;;2.90;1.70;;;;;;;12.99;96.30;100312.44;4914336;29;20473;-52
2023/03/21 11:23:44;;;;;;;4.07;1.50;;;;;;;13.00;93.40;100313.31;4914328;28;20493;-51
2023/03/21 11:26:17;;;;;;;1.53;1.43;;;;;;;12.92;92.01;100307.41;4914631;28;20958;-52
2023/03/21 11:28:45;;;;;;;2.47;1.50;;;;;;;13.04;94.10;100301.59;4914685;29;20456;-50
2023/03/21 11:31:12;;;;;;;1.50;1.40;;;;;;;12.97;92.43;100308.09;4913420;29;20966;-51
2023/03/21 11:33:44;;;;;;;2.53;1.53;;;;;;;13.02;92.45;100311.47;4913352;28;20461;-51
2023/03/21 11:36:38;;;;;;;1.80;1.70;;;;;;;13.00;91.58;100306.16;4914357;29;20907;-52
2023/03/21 11:39:26;;;;;;;1.67;1.20;;;;;;;13.09;92.86;100317.44;4919633;28;20465;-52
2023/03/21 11:41:53;;;;;;;2.20;1.83;;;;;;;13.44;93.69;100313.44;4895084;29;20487;-51
2023/03/21 11:44:39;;;;;;;4.43;1.90;;;;;;;13.34;91.83;100308.44;4914085;28;20453;-51
2023/03/21 11:47:09;;;;;;;4.63;2.00;;;;;;;13.32;89.99;100302.31;4914252;29;20864;-50